createdAt,value
2023-03-24T00:04:25.672Z,99809.86
2023-03-24T00:09:18.515Z,99811.91
2023-03-24T00:14:12.314Z,99814.67
2023-03-24T00:19:05.318Z,99820.27
2023-03-24T00:23:59.778Z,99814.92
2023-03-24T00:28:52.614Z,99815.84
2023-03-24T00:33:51.032Z,99810.68
2023-03-24T00:38:45.261Z,99812.96
2023-03-24T00:43:38.866Z,99816.64
2023-03-24T00:48:32.006Z,99817.52
2023-03-24T00:53:26.227Z,99810.23
2023-03-24T00:58:20.516Z,99812.36
2023-03-24T01:03:13.931Z,99812.40
2023-03-24T01:08:08.075Z,99810.16
2023-03-24T01:13:01.907Z,99800.96
2023-03-24T01:17:55.739Z,99795.92
2023-03-24T01:22:48.617Z,99804.20
2023-03-24T01:27:41.698Z,99802.78
2023-03-24T01:32:34.866Z,99803.59
2023-03-24T01:37:27.834Z,99797.26
2023-03-24T01:42:24.040Z,99800.30
2023-03-24T01:47:17.366Z,99798.83
2023-03-24T01:52:20.320Z,99801.86
2023-03-24T01:57:19.336Z,99802.13
2023-03-24T02:02:13.995Z,99802.86
2023-03-24T02:07:23.133Z,99805.55
2023-03-24T02:12:16.378Z,99810.30
2023-03-24T02:17:43.235Z,99798.25
2023-03-24T02:22:42.761Z,99792.92
2023-03-24T02:28:00.645Z,99788.33
2023-03-24T02:32:54.115Z,99779.55
2023-03-24T02:37:47.028Z,99781.16
2023-03-24T02:43:09.636Z,99778.63
2023-03-24T02:48:24.195Z,99785.95
2023-03-24T02:53:43.181Z,99790.64
2023-03-24T02:58:53.192Z,99785.73
2023-03-24T03:03:52.022Z,99783.02
2023-03-24T03:08:48.790Z,99778.89
2023-03-24T03:13:49.742Z,99774.82
2023-03-24T03:18:53.289Z,99787.31
2023-03-24T03:24:06.080Z,99793.58
2023-03-24T03:29:02.763Z,99796.92
2023-03-24T03:34:05.871Z,99799.21
2023-03-24T03:39:12.041Z,99799.23
2023-03-24T03:44:04.975Z,99803.60
2023-03-24T03:48:58.512Z,99802.85
2023-03-24T03:53:58.342Z,99797.07
2023-03-24T03:58:51.501Z,99794.41
2023-03-24T04:03:52.762Z,99801.72
2023-03-24T04:09:15.374Z,99798.61
2023-03-24T04:14:27.076Z,99799.59
2023-03-24T04:20:17.738Z,99801.26
2023-03-24T04:25:18.426Z,99802.23
2023-03-24T04:30:17.146Z,99789.58
2023-03-24T04:35:20.821Z,99784.35
2023-03-24T04:40:36.820Z,99783.27
2023-03-24T04:45:33.616Z,99776.73
2023-03-24T04:51:01.597Z,99777.38
2023-03-24T04:56:31.074Z,99769.27
2023-03-24T05:01:32.824Z,99766.64
2023-03-24T05:06:47.268Z,99766.98
2023-03-24T05:11:44.056Z,99758.02
2023-03-24T05:16:37.102Z,99753.91
2023-03-24T05:21:33.343Z,99757.17
2023-03-24T05:26:27.618Z,99749.55
2023-03-24T05:31:38.952Z,99752.30
2023-03-24T05:36:48.065Z,99742.30
2023-03-24T05:41:42.504Z,99742.69
2023-03-24T05:46:35.680Z,99745.30
2023-03-24T05:51:29.449Z,99737.70
2023-03-24T05:56:28.338Z,99729.97
2023-03-24T06:01:42.329Z,99730.15
2023-03-24T06:06:45.919Z,99728.42
2023-03-24T06:11:39.154Z,99728.38
2023-03-24T06:16:34.264Z,99731.27
2023-03-24T06:21:33.139Z,99728.12
2023-03-24T06:26:30.884Z,99719.92
2023-03-24T06:31:25.227Z,99723.48
2023-03-24T06:36:19.709Z,99725.48
2023-03-24T06:41:13.223Z,99727.30
2023-03-24T06:46:06.520Z,99725.12
2023-03-24T06:50:59.740Z,99721.36
2023-03-24T06:55:52.770Z,99718.08
2023-03-24T07:00:48.238Z,99717.20
2023-03-24T07:06:00.902Z,99718.05
2023-03-24T07:10:54.204Z,99717.34
2023-03-24T07:15:47.112Z,99720.97
2023-03-24T07:20:42.298Z,99726.16
2023-03-24T07:25:42.373Z,99727.70
2023-03-24T07:31:12.513Z,99726.46
2023-03-24T07:36:08.166Z,99728.32
2023-03-24T07:41:02.232Z,99731.95
2023-03-24T07:45:56.927Z,99731.25
2023-03-24T07:50:53.822Z,99728.30
2023-03-24T07:56:22.180Z,99726.55
2023-03-24T08:01:20.712Z,99719.09
2023-03-24T08:06:14.690Z,99705.88
2023-03-24T08:11:26.586Z,99705.70
2023-03-24T08:16:19.443Z,99703.79
2023-03-24T08:21:12.624Z,99695.82
2023-03-24T08:26:05.418Z,99694.44
2023-03-24T08:30:58.309Z,99690.23
2023-03-24T08:35:52.806Z,99678.65
2023-03-24T08:40:45.860Z,99673.26
2023-03-24T08:45:39.793Z,99661.39
2023-03-24T08:50:36.374Z,99646.90
2023-03-24T08:55:29.546Z,99640.73
2023-03-24T09:00:22.937Z,99633.77
2023-03-24T09:05:29.405Z,99623.02
2023-03-24T09:10:30.457Z,99612.45
2023-03-24T09:15:23.383Z,99600.05
2023-03-24T09:20:17.261Z,99598.56
2023-03-24T09:25:11.674Z,99584.30
2023-03-24T09:30:05.047Z,99581.92
2023-03-24T09:34:58.122Z,99576.92
2023-03-24T09:39:51.230Z,99564.95
2023-03-24T09:44:53.887Z,99547.91
2023-03-24T09:49:47.930Z,99538.81
2023-03-24T09:54:40.740Z,99538.14
2023-03-24T09:59:37.541Z,99534.38
2023-03-24T10:04:32.437Z,99533.99
2023-03-24T10:09:30.754Z,99520.40
2023-03-24T10:14:47.949Z,99511.08
2023-03-24T10:20:05.955Z,99500.82
2023-03-24T10:25:08.291Z,99506.61
2023-03-24T10:30:25.132Z,99506.62
2023-03-24T10:35:26.171Z,99502.28
2023-03-24T10:40:22.543Z,99496.86
2023-03-24T10:45:21.707Z,99494.17
2023-03-24T10:50:15.683Z,99488.65
2023-03-24T10:55:16.782Z,99483.70
2023-03-24T11:00:19.055Z,99480.38
2023-03-24T11:05:22.676Z,99483.23
2023-03-24T11:10:19.349Z,99482.86
2023-03-24T11:15:24.283Z,99475.54
2023-03-24T11:20:27.511Z,99472.54
2023-03-24T11:25:20.532Z,99470.52
2023-03-24T11:30:15.604Z,99468.19
2023-03-24T11:35:17.768Z,99458.52
2023-03-24T11:40:13.879Z,99448.06
2023-03-24T11:45:23.665Z,99437.48
2023-03-24T11:50:22.906Z,99430.31
2023-03-24T11:55:25.187Z,99416.20
2023-03-24T12:00:34.725Z,99404.76
2023-03-24T12:05:42.240Z,99396.23
2023-03-24T12:11:19.187Z,99388.52
2023-03-24T12:16:40.944Z,99376.05
2023-03-24T12:22:14.372Z,99379.68
2023-03-24T12:27:20.666Z,99369.02
2023-03-24T12:32:47.402Z,99363.58
2023-03-24T12:37:59.128Z,99354.27
2023-03-24T12:43:25.275Z,99358.54
2023-03-24T12:48:29.014Z,99347.16
2023-03-24T12:53:41.907Z,99342.48
2023-03-24T12:58:43.269Z,99333.74
2023-03-24T13:03:45.520Z,99318.15
2023-03-24T13:08:41.514Z,99306.02
2023-03-24T13:13:42.516Z,99300.75
2023-03-24T13:18:47.246Z,99295.77
2023-03-24T13:23:58.283Z,99295.70
2023-03-24T13:29:04.852Z,99290.73
2023-03-24T13:33:59.470Z,99284.52
2023-03-24T13:38:59.261Z,99280.39
2023-03-24T13:44:00.847Z,99274.92
2023-03-24T13:48:57.234Z,99267.10
2023-03-24T13:54:00.056Z,99266.10
2023-03-24T13:59:22.338Z,99265.81
2023-03-24T14:04:21.659Z,99257.02
2023-03-24T14:09:31.016Z,99249.06
2023-03-24T14:14:26.256Z,99243.08
2023-03-24T14:19:26.737Z,99241.77
2023-03-24T14:24:27.255Z,99235.75
2023-03-24T14:29:54.506Z,99226.61
2023-03-24T14:34:58.391Z,99222.84
2023-03-24T14:39:53.289Z,99218.44
2023-03-24T14:45:26.263Z,99213.15
2023-03-24T14:50:24.008Z,99203.87
2023-03-24T14:55:20.067Z,99197.98
2023-03-24T15:00:25.438Z,99192.37
2023-03-24T15:05:39.159Z,99188.70
2023-03-24T15:10:52.031Z,99176.34
2023-03-24T15:15:49.050Z,99169.84
2023-03-24T15:20:41.897Z,99165.05
2023-03-24T15:25:34.962Z,99161.86
2023-03-24T15:30:29.803Z,99154.31
2023-03-24T15:35:24.707Z,99148.27
2023-03-24T15:40:54.685Z,99149.44
2023-03-24T15:46:04.666Z,99148.02
2023-03-24T15:51:12.548Z,99148.12
2023-03-24T15:56:18.835Z,99142.03
2023-03-24T16:01:14.491Z,99144.39
2023-03-24T16:06:15.100Z,99144.36
2023-03-24T16:11:12.177Z,99136.62
2023-03-24T16:16:17.102Z,99134.67
2023-03-24T16:21:19.634Z,99130.45
2023-03-24T16:26:40.398Z,99131.33
2023-03-24T16:31:35.612Z,99125.80
2023-03-24T16:36:29.060Z,99125.56
2023-03-24T16:41:21.917Z,99121.49
2023-03-24T16:46:17.352Z,99121.77
2023-03-24T16:51:16.011Z,99127.83
2023-03-24T16:56:09.935Z,99133.05
2023-03-24T17:01:03.203Z,99145.31
2023-03-24T17:05:57.621Z,99155.13
2023-03-24T17:10:54.880Z,99159.48
2023-03-24T17:15:47.782Z,99168.16
2023-03-24T17:20:40.924Z,99180.02
2023-03-24T17:25:33.801Z,99192.73
2023-03-24T17:30:28.869Z,99207.07
2023-03-24T17:35:24.049Z,99221.91
2023-03-24T17:40:19.599Z,99231.78
2023-03-24T17:45:18.960Z,99237.25
2023-03-24T17:50:12.601Z,99245.60
2023-03-24T17:55:06.482Z,99252.13
2023-03-24T17:59:59.456Z,99250.12
2023-03-24T18:04:52.293Z,99253.84
2023-03-24T18:09:45.117Z,99263.53
2023-03-24T18:14:38.057Z,99258.88
2023-03-24T18:19:31.018Z,99254.55
2023-03-24T18:24:25.526Z,99251.45
2023-03-24T18:29:18.385Z,99246.41
2023-03-24T18:34:11.145Z,99243.77
2023-03-24T18:39:08.873Z,99225.81
2023-03-24T18:44:01.677Z,99220.36
2023-03-24T18:48:54.845Z,99225.54
2023-03-24T18:53:50.861Z,99225.45
2023-03-24T18:58:44.413Z,99222.09
2023-03-24T19:03:38.732Z,99230.05
2023-03-24T19:08:31.627Z,99234.52
2023-03-24T19:13:24.592Z,99228.98
2023-03-24T19:18:17.498Z,99219.48
2023-03-24T19:23:10.692Z,99209.67
2023-03-24T19:28:03.548Z,99206.66
2023-03-24T19:32:56.934Z,99204.80
2023-03-24T19:37:49.973Z,99205.61
2023-03-24T19:42:45.212Z,99204.27
2023-03-24T19:47:38.104Z,99200.10
2023-03-24T19:52:31.019Z,99194.07
2023-03-24T19:57:25.233Z,99195.50
2023-03-24T20:02:21.189Z,99194.17
2023-03-24T20:07:14.048Z,99183.98
2023-03-24T20:12:07.108Z,99181.72
2023-03-24T20:17:01.026Z,99185.95
2023-03-24T20:21:53.879Z,99190.31
2023-03-24T20:26:48.293Z,99193.21
2023-03-24T20:31:41.961Z,99191.20
2023-03-24T20:36:35.215Z,99191.81
2023-03-24T20:41:28.045Z,99191.55
2023-03-24T20:46:21.249Z,99193.77
2023-03-24T20:51:14.813Z,99209.39
2023-03-24T20:56:10.641Z,99229.55
2023-03-24T21:01:08.983Z,99241.06
2023-03-24T21:06:02.549Z,99232.41
2023-03-24T21:10:59.108Z,99235.98
2023-03-24T21:15:52.480Z,99242.02
2023-03-24T21:20:55.196Z,99251.34
2023-03-24T21:25:48.676Z,99245.75
2023-03-24T21:30:41.747Z,99253.70
2023-03-24T21:35:34.571Z,99254.05
2023-03-24T21:40:27.470Z,99259.11
2023-03-24T21:45:23.597Z,99283.62
2023-03-24T21:50:23.665Z,99294.60
2023-03-24T21:55:17.502Z,99303.72
2023-03-24T22:00:14.829Z,99279.83
2023-03-24T22:05:08.062Z,99240.45
2023-03-24T22:10:03.479Z,99235.16
2023-03-24T22:14:56.408Z,99236.30
2023-03-24T22:19:49.623Z,99257.10
2023-03-24T22:24:42.434Z,99267.96
2023-03-24T22:29:36.122Z,99270.13
2023-03-24T22:34:29.558Z,99264.15
2023-03-24T22:39:23.237Z,99275.37
2023-03-24T22:44:16.299Z,99276.55
2023-03-24T22:49:09.221Z,99271.47
2023-03-24T22:54:02.528Z,99275.98
2023-03-24T22:58:55.674Z,99282.89
2023-03-24T23:03:48.587Z,99300.19
2023-03-24T23:08:42.175Z,99323.10
2023-03-24T23:13:35.910Z,99326.54
2023-03-24T23:18:28.926Z,99315.60
2023-03-24T23:23:21.786Z,99313.91
2023-03-24T23:28:14.723Z,99305.98
2023-03-24T23:33:07.606Z,99328.55
2023-03-24T23:38:02.458Z,99329.05
2023-03-24T23:42:55.270Z,99320.39
2023-03-24T23:47:51.263Z,99317.80
2023-03-24T23:52:44.981Z,99325.82
2023-03-24T23:57:38.397Z,99334.33
